createdAt,value
2022-10-01T00:03:34.188Z,84.60
2022-10-01T00:08:41.261Z,84.57
2022-10-01T00:13:44.105Z,84.76
2022-10-01T00:18:47.175Z,84.61
2022-10-01T00:24:04.733Z,85.14
2022-10-01T00:29:13.055Z,85.22
2022-10-01T00:34:15.803Z,85.37
2022-10-01T00:39:18.478Z,85.57
2022-10-01T00:44:36.165Z,85.38
2022-10-01T00:49:38.932Z,85.26
2022-10-01T00:54:57.709Z,85.40
2022-10-01T01:00:03.453Z,85.64
2022-10-01T01:05:08.915Z,85.38
2022-10-01T01:10:17.052Z,85.50
2022-10-01T01:15:31.167Z,85.43
2022-10-01T01:21:11.661Z,85.58
2022-10-01T01:26:42.353Z,85.78
2022-10-01T01:31:48.903Z,85.78
2022-10-01T01:37:00.269Z,86.11
2022-10-01T01:42:08.257Z,86.46
2022-10-01T01:47:10.959Z,86.40
2022-10-01T01:52:15.811Z,86.59
2022-10-01T01:57:19.517Z,86.84
2022-10-01T02:02:29.393Z,86.91
2022-10-01T02:07:57.332Z,87.20
2022-10-01T02:13:41.653Z,87.35
2022-10-01T02:19:23.035Z,87.73
2022-10-01T02:24:46.467Z,87.55
2022-10-01T02:29:49.175Z,87.28
2022-10-01T02:34:52.088Z,87.42
2022-10-01T02:39:55.422Z,87.46
2022-10-01T02:45:02.749Z,86.83
2022-10-01T02:50:06.300Z,86.78
2022-10-01T02:55:15.200Z,87.01
2022-10-01T03:00:21.486Z,87.60
2022-10-01T03:05:24.632Z,87.66
2022-10-01T03:10:27.304Z,88.09
2022-10-01T03:15:30.336Z,88.20
2022-10-01T03:20:33.068Z,88.04
2022-10-01T03:25:36.410Z,88.34
2022-10-01T03:30:39.116Z,88.27
2022-10-01T03:35:41.834Z,87.67
2022-10-01T03:40:44.508Z,87.75
2022-10-01T03:45:47.409Z,87.85
2022-10-01T03:50:58.011Z,87.90
2022-10-01T03:56:01.332Z,88.04
2022-10-01T04:01:04.108Z,87.96
2022-10-01T04:06:07.045Z,88.12
2022-10-01T04:11:09.841Z,88.20
2022-10-01T04:16:15.727Z,88.14
2022-10-01T04:21:18.510Z,87.85
2022-10-01T04:26:21.184Z,87.51
2022-10-01T04:31:26.898Z,87.88
2022-10-01T04:36:29.805Z,87.76
2022-10-01T04:41:32.643Z,87.35
2022-10-01T04:46:36.305Z,87.52
2022-10-01T04:51:39.065Z,87.73
2022-10-01T04:56:41.822Z,87.65
2022-10-01T05:01:45.142Z,87.99
2022-10-01T05:06:47.907Z,87.86
2022-10-01T05:11:52.173Z,88.21
2022-10-01T05:16:54.980Z,88.41
2022-10-01T05:21:57.744Z,88.75
2022-10-01T05:27:00.426Z,88.46
2022-10-01T05:32:03.149Z,88.86
2022-10-01T05:37:06.553Z,89.36
2022-10-01T05:42:09.382Z,89.58
2022-10-01T05:47:13.673Z,89.72
2022-10-01T05:52:16.818Z,89.50
2022-10-01T05:57:19.471Z,90.15
2022-10-01T06:02:22.218Z,89.87
2022-10-01T06:07:24.962Z,89.67
2022-10-01T06:12:27.709Z,89.79
2022-10-01T06:17:30.464Z,90.04
2022-10-01T06:22:33.241Z,90.18
2022-10-01T06:27:36.017Z,90.10
2022-10-01T06:32:38.744Z,90.38
2022-10-01T06:37:41.457Z,90.11
2022-10-01T06:42:53.748Z,89.80
2022-10-01T06:48:03.848Z,90.13
2022-10-01T06:53:06.629Z,90.01
2022-10-01T06:58:17.993Z,89.63
2022-10-01T07:03:21.555Z,89.28
2022-10-01T07:08:24.635Z,89.07
2022-10-01T07:13:27.401Z,88.96
2022-10-01T07:18:30.073Z,88.95
2022-10-01T07:23:33.551Z,88.81
2022-10-01T07:28:36.201Z,88.45
2022-10-01T07:33:39.602Z,88.23
2022-10-01T07:38:43.961Z,87.80
2022-10-01T07:43:46.829Z,87.64
2022-10-01T07:48:49.873Z,88.07
2022-10-01T07:53:52.701Z,87.52
2022-10-01T07:58:59.074Z,87.21
2022-10-01T08:04:21.822Z,86.29
2022-10-01T08:09:24.982Z,86.18
2022-10-01T08:14:28.720Z,85.77
2022-10-01T08:19:32.080Z,85.00
2022-10-01T08:24:36.394Z,84.79
2022-10-01T08:29:46.793Z,85.05
2022-10-01T08:34:54.500Z,84.41
2022-10-01T08:40:01.129Z,83.94
2022-10-01T08:45:10.647Z,83.68
2022-10-01T08:50:23.578Z,83.47
2022-10-01T08:55:28.225Z,83.27
2022-10-01T09:00:31.937Z,82.84
2022-10-01T09:06:20.893Z,81.39
2022-10-01T09:11:50.535Z,81.50
2022-10-01T09:17:10.879Z,81.44
2022-10-01T09:22:26.233Z,80.55
2022-10-01T09:27:28.973Z,80.01
2022-10-01T09:32:47.129Z,80.30
2022-10-01T09:38:23.283Z,79.28
2022-10-01T09:43:31.140Z,79.32
2022-10-01T09:48:58.494Z,78.98
2022-10-01T09:54:09.902Z,78.68
2022-10-01T09:59:22.853Z,78.49
2022-10-01T10:04:25.576Z,78.96
2022-10-01T10:09:33.277Z,78.86
2022-10-01T10:14:40.845Z,78.60
2022-10-01T10:19:51.583Z,78.74
2022-10-01T10:24:57.994Z,78.95
2022-10-01T10:30:08.873Z,78.63
2022-10-01T10:35:15.132Z,78.29
2022-10-01T10:40:21.508Z,78.86
2022-10-01T10:45:38.222Z,78.82
2022-10-01T10:50:44.644Z,78.64
2022-10-01T10:56:05.349Z,78.78
2022-10-01T11:01:29.127Z,78.72
2022-10-01T11:06:31.995Z,78.76
2022-10-01T11:11:47.149Z,77.90
2022-10-01T11:16:54.741Z,77.32
2022-10-01T11:22:32.753Z,76.45
2022-10-01T11:28:09.776Z,75.87
2022-10-01T11:33:25.768Z,75.91
2022-10-01T11:38:45.793Z,74.97
2022-10-01T11:43:55.857Z,72.50
2022-10-01T11:49:10.943Z,72.70
2022-10-01T11:54:15.872Z,72.88
2022-10-01T11:59:30.788Z,71.94
2022-10-01T12:04:40.388Z,70.32
2022-10-01T12:10:17.660Z,69.81
2022-10-01T12:15:33.594Z,69.22
2022-10-01T12:20:40.897Z,68.65
2022-10-01T12:25:52.698Z,68.53
2022-10-01T12:31:13.807Z,67.67
2022-10-01T12:36:36.003Z,64.84
2022-10-01T12:42:07.975Z,58.08
2022-10-01T12:47:36.488Z,52.42
2022-10-01T12:53:32.318Z,46.17
2022-10-01T12:58:53.796Z,48.45
2022-10-01T13:04:19.645Z,49.17
2022-10-01T13:09:54.037Z,50.90
2022-10-01T13:15:00.118Z,51.62
2022-10-01T13:20:27.533Z,53.03
2022-10-01T13:26:01.376Z,53.58
2022-10-01T13:31:15.428Z,54.44
2022-10-01T13:36:19.646Z,55.38
2022-10-01T13:41:26.235Z,56.00
2022-10-01T13:46:31.976Z,56.99
2022-10-01T13:51:36.573Z,57.59
2022-10-01T13:56:39.305Z,58.18
2022-10-01T14:01:42.293Z,58.85
2022-10-01T14:06:55.255Z,59.79
2022-10-01T14:12:26.823Z,60.33
2022-10-01T14:17:31.741Z,61.60
2022-10-01T14:23:10.892Z,62.24
2022-10-01T14:28:26.112Z,62.58
2022-10-01T14:33:37.960Z,63.59
2022-10-01T14:38:40.716Z,64.24
2022-10-01T14:43:43.386Z,64.72
2022-10-01T14:48:57.817Z,64.95
2022-10-01T14:54:00.735Z,65.56
2022-10-01T14:59:04.089Z,66.53
2022-10-01T15:04:15.076Z,67.38
2022-10-01T15:09:19.530Z,67.21
2022-10-01T15:14:24.263Z,68.28
2022-10-01T15:19:27.714Z,68.77
2022-10-01T15:24:39.482Z,69.24
2022-10-01T15:29:42.716Z,69.78
2022-10-01T15:34:53.374Z,70.87
2022-10-01T15:39:56.068Z,71.17
2022-10-01T15:45:08.046Z,71.39
2022-10-01T15:50:11.067Z,72.15
2022-10-01T15:55:17.067Z,72.35
2022-10-01T16:00:29.361Z,72.49
2022-10-01T16:05:38.466Z,72.99
2022-10-01T16:10:41.170Z,73.32
2022-10-01T16:15:43.860Z,73.63
2022-10-01T16:20:51.117Z,73.62
2022-10-01T16:25:53.980Z,73.76
2022-10-01T16:30:56.749Z,73.96
2022-10-01T16:36:10.939Z,73.96
2022-10-01T16:41:25.238Z,74.21
2022-10-01T16:46:28.548Z,74.42
2022-10-01T16:51:32.098Z,75.11
2022-10-01T16:56:35.898Z,74.83
2022-10-01T17:01:39.026Z,75.06
2022-10-01T17:06:41.709Z,75.59
2022-10-01T17:11:45.016Z,75.81
2022-10-01T17:16:50.710Z,75.86
2022-10-01T17:21:53.632Z,76.20
2022-10-01T17:26:56.490Z,76.55
2022-10-01T17:31:59.274Z,76.58
2022-10-01T17:37:01.977Z,76.49
2022-10-01T17:42:04.774Z,77.05
2022-10-01T17:47:07.490Z,77.44
2022-10-01T17:52:10.346Z,77.50
2022-10-01T17:57:13.892Z,77.60
2022-10-01T18:02:39.838Z,78.05
2022-10-01T18:07:39.919Z,78.45
2022-10-01T18:12:42.740Z,78.37
2022-10-01T18:17:51.387Z,78.45
2022-10-01T18:22:54.566Z,78.65
2022-10-01T18:27:57.329Z,79.10
2022-10-01T18:33:01.533Z,79.07
2022-10-01T18:38:26.629Z,79.05
2022-10-01T18:43:29.544Z,78.84
2022-10-01T18:48:53.721Z,79.32
2022-10-01T18:54:22.743Z,79.26
2022-10-01T18:59:35.682Z,79.20
2022-10-01T19:05:05.149Z,79.36
2022-10-01T19:10:26.553Z,79.61
2022-10-01T19:15:49.742Z,79.74
2022-10-01T19:21:39.400Z,79.72
2022-10-01T19:26:55.132Z,80.21
2022-10-01T19:32:06.093Z,80.41
2022-10-01T19:37:34.172Z,80.57
2022-10-01T19:42:38.701Z,80.69
2022-10-01T19:47:50.291Z,81.19
2022-10-01T19:52:56.119Z,81.45
2022-10-01T19:57:59.399Z,81.70
2022-10-01T20:03:26.425Z,81.53
2022-10-01T20:08:41.622Z,81.73
2022-10-01T20:14:51.591Z,82.06
2022-10-01T20:20:13.624Z,82.28
2022-10-01T20:25:39.375Z,82.66
2022-10-01T20:30:58.333Z,83.05
2022-10-01T20:36:13.724Z,83.40
2022-10-01T20:41:20.093Z,83.88
2022-10-01T20:46:52.592Z,83.88
2022-10-01T20:52:37.554Z,83.79
2022-10-01T20:57:50.897Z,83.87
2022-10-01T21:03:27.754Z,84.05
2022-10-01T21:09:00.931Z,84.25
2022-10-01T21:14:10.379Z,84.46
2022-10-01T21:19:32.016Z,84.40
2022-10-01T21:24:37.987Z,84.60
2022-10-01T21:30:17.006Z,84.66
2022-10-01T21:36:02.277Z,86.21
2022-10-01T21:41:14.831Z,87.56
2022-10-01T21:46:27.471Z,87.50
2022-10-01T21:52:04.204Z,88.75
2022-10-01T21:57:07.344Z,88.56
2022-10-01T22:02:48.799Z,88.14
2022-10-01T22:08:23.408Z,88.34
2022-10-01T22:13:37.049Z,88.47
2022-10-01T22:19:05.839Z,88.74
2022-10-01T22:24:10.985Z,88.55
2022-10-01T22:29:20.458Z,88.49
2022-10-01T22:34:28.309Z,88.60
2022-10-01T22:39:34.871Z,88.55
2022-10-01T22:44:37.583Z,88.53
2022-10-01T22:50:04.025Z,88.83
2022-10-01T22:55:25.004Z,88.78
2022-10-01T23:00:28.341Z,88.99
2022-10-01T23:05:57.265Z,89.07
2022-10-01T23:11:24.405Z,88.98
2022-10-01T23:16:39.840Z,88.99
2022-10-01T23:22:42.507Z,89.15
2022-10-01T23:27:51.357Z,89.30
2022-10-01T23:33:41.837Z,89.34
2022-10-01T23:39:18.757Z,89.93
2022-10-01T23:44:50.106Z,89.78
2022-10-01T23:49:55.532Z,89.66
2022-10-01T23:55:23.008Z,89.54
